Time;durP1;ratioP1;P1;durP2;ratioP2;P2;SDS_P1;SDS_P2;PMS_P1;PMS_P2;Temp;Humidity;BMP_temperature;BMP_pressure;BME280_temperature;BME280_humidity;BME280_pressure;Samples;Min_cycle;Max_cycle;Signal;HPM_P1;HPM_P2
2022/11/12 00:01:20;;;;;;;1.80;1.70;;;;;;;;;;4928537;29;20584;-64
2022/11/12 00:03:49;;;;;;;7.23;2.17;;;;;;;;;;4916324;29;20576;-64
2022/11/12 00:06:16;;;;;;;6.30;2.40;;;;;;;;;;4923728;29;20212;-65
2022/11/12 00:08:43;;;;;;;2.50;2.07;;;;;;;;;;4912821;29;20208;-65
2022/11/12 00:11:10;;;;;;;2.87;2.20;;;;;;;;;;4931150;29;20220;-64
2022/11/12 00:13:37;;;;;;;5.33;2.17;;;;;;;;;;4931380;29;20223;-65
2022/11/12 00:16:05;;;;;;;2.03;1.87;;;;;;;;;;4913658;29;20232;-65
2022/11/12 00:18:32;;;;;;;2.47;2.27;;;;;;;;;;4912237;29;20235;-64
2022/11/12 00:21:00;;;;;;;6.43;2.10;;;;;;;;;;4928489;29;20215;-64
2022/11/12 00:23:27;;;;;;;2.27;2.07;;;;;;;;;;4929701;29;20208;-64
2022/11/12 00:26:00;;;;;;;3.03;2.13;;;;;;;;;;4912044;29;20208;-64
2022/11/12 00:28:28;;;;;;;2.70;2.13;;;;;;;;;;4916081;29;20211;-65
2022/11/12 00:30:55;;;;;;;6.50;2.40;;;;;;;;;;4927563;29;20216;-65
2022/11/12 00:33:22;;;;;;;8.30;2.13;;;;;;;;;;4912395;29;20216;-65
2022/11/12 00:35:49;;;;;;;3.53;2.30;;;;;;;;;;4926192;29;20227;-64
2022/11/12 00:38:17;;;;;;;2.60;2.30;;;;;;;;;;4916049;29;20226;-65
2022/11/12 00:40:44;;;;;;;12.87;2.00;;;;;;;;;;4915272;29;20212;-65
2022/11/12 00:43:11;;;;;;;1.90;1.80;;;;;;;;;;4931646;29;20238;-65
2022/11/12 00:45:38;;;;;;;4.97;2.07;;;;;;;;;;4921319;29;20617;-66
2022/11/12 00:48:05;;;;;;;1.90;1.77;;;;;;;;;;4912817;29;20208;-65
2022/11/12 00:50:33;;;;;;;1.70;1.50;;;;;;;;;;4919832;29;20235;-64
2022/11/12 00:53:00;;;;;;;1.57;1.53;;;;;;;;;;4925013;29;20212;-64
2022/11/12 00:55:28;;;;;;;2.97;1.87;;;;;;;;;;4922585;29;20281;-64
2022/11/12 00:57:55;;;;;;;3.30;2.00;;;;;;;;;;4913557;29;20255;-65
2022/11/12 01:00:22;;;;;;;1.97;1.70;;;;;;;;;;4913906;29;20215;-64
2022/11/12 01:02:49;;;;;;;2.50;1.60;;;;;;;;;;4920914;29;20209;-64
2022/11/12 01:05:17;;;;;;;4.50;1.80;;;;;;;;;;4913675;29;20204;-64
2022/11/12 01:07:44;;;;;;;1.70;1.60;;;;;;;;;;4919408;29;20211;-65
2022/11/12 01:10:11;;;;;;;1.73;1.63;;;;;;;;;;4921137;29;20212;-64
2022/11/12 01:12:40;;;;;;;2.00;1.80;;;;;;;;;;4912187;29;20208;-64
2022/11/12 01:15:08;;;;;;;10.57;1.90;;;;;;;;;;4921585;29;20208;-64
2022/11/12 01:17:35;;;;;;;2.00;1.90;;;;;;;;;;4918329;29;20215;-64
2022/11/12 01:20:02;;;;;;;3.40;2.27;;;;;;;;;;4912323;29;20216;-64
2022/11/12 01:22:29;;;;;;;2.57;2.37;;;;;;;;;;4915439;29;20223;-64
2022/11/12 01:24:56;;;;;;;2.10;1.90;;;;;;;;;;4931000;29;20212;-64
2022/11/12 01:27:23;;;;;;;2.50;2.30;;;;;;;;;;4919521;29;20212;-64
2022/11/12 01:29:52;;;;;;;2.30;2.10;;;;;;;;;;4913797;29;20215;-64
2022/11/12 01:32:19;;;;;;;1.83;1.73;;;;;;;;;;4925946;29;20212;-65
2022/11/12 01:34:46;;;;;;;7.43;2.03;;;;;;;;;;4912482;29;20235;-64
2022/11/12 01:37:13;;;;;;;8.53;2.70;;;;;;;;;;4925352;29;20232;-64
2022/11/12 01:39:40;;;;;;;2.63;2.00;;;;;;;;;;4921043;29;20895;-64
2022/11/12 01:42:07;;;;;;;2.43;2.23;;;;;;;;;;4911406;29;20235;-64
2022/11/12 01:44:35;;;;;;;2.20;2.00;;;;;;;;;;4914672;29;20212;-64
2022/11/12 01:47:06;;;;;;;5.70;2.57;;;;;;;;;;4911199;29;20231;-64
2022/11/12 01:49:36;;;;;;;12.43;2.17;;;;;;;;;;4916870;29;20211;-64
2022/11/12 01:52:09;;;;;;;2.27;2.07;;;;;;;;;;4921891;29;20209;-64
2022/11/12 01:54:36;;;;;;;2.27;2.07;;;;;;;;;;4902955;29;20228;-64
2022/11/12 01:57:04;;;;;;;2.90;2.30;;;;;;;;;;4923740;29;20231;-64
2022/11/12 01:59:35;;;;;;;3.57;2.70;;;;;;;;;;4931082;29;20291;-64
2022/11/12 02:02:02;;;;;;;3.03;2.73;;;;;;;;;;4928279;29;20751;-64
2022/11/12 02:04:31;;;;;;;4.97;3.17;;;;;;;;;;4916543;29;21004;-64
2022/11/12 02:06:59;;;;;;;7.33;2.80;;;;;;;;;;4916422;29;20212;-63
2022/11/12 02:09:26;;;;;;;3.40;3.00;;;;;;;;;;4918147;29;20212;-64
2022/11/12 02:11:53;;;;;;;9.03;3.13;;;;;;;;;;4933593;29;20211;-64
2022/11/12 02:14:19;;;;;;;3.20;2.57;;;;;;;;;;4930648;29;20201;-64
2022/11/12 02:16:48;;;;;;;3.13;2.83;;;;;;;;;;4914751;29;20225;-63
2022/11/12 02:19:16;;;;;;;5.00;3.00;;;;;;;;;;4931916;29;20218;-64
2022/11/12 02:21:45;;;;;;;4.40;2.73;;;;;;;;;;4932757;29;20211;-63
2022/11/12 02:24:30;;;;;;;4.60;2.30;;;;;;;;;;4914877;29;20244;-63
2022/11/12 02:26:57;;;;;;;4.67;2.40;;;;;;;;;;4921626;29;20208;-63
2022/11/12 02:29:25;;;;;;;4.03;2.50;;;;;;;;;;4924586;29;20222;-63
2022/11/12 02:31:52;;;;;;;4.53;2.63;;;;;;;;;;4914713;29;20219;-63
2022/11/12 02:34:19;;;;;;;3.90;2.30;;;;;;;;;;4923519;29;20679;-63
2022/11/12 02:36:47;;;;;;;3.20;2.83;;;;;;;;;;4933288;29;20701;-63
2022/11/12 02:39:14;;;;;;;2.33;2.00;;;;;;;;;;4920873;29;20208;-63
2022/11/12 02:41:41;;;;;;;4.77;2.97;;;;;;;;;;4916078;29;20223;-63
2022/11/12 02:44:08;;;;;;;4.30;3.00;;;;;;;;;;4931024;29;20213;-64
2022/11/12 02:46:35;;;;;;;4.27;2.67;;;;;;;;;;4931308;29;20207;-63
2022/11/12 02:49:02;;;;;;;3.23;2.73;;;;;;;;;;4933649;29;20218;-64
2022/11/12 02:51:30;;;;;;;2.00;1.77;;;;;;;;;;4915576;29;20220;-63
2022/11/12 02:53:58;;;;;;;2.27;2.10;;;;;;;;;;4927221;29;20240;-63
2022/11/12 02:56:25;;;;;;;4.00;2.80;;;;;;;;;;4915390;29;20224;-63
2022/11/12 02:58:52;;;;;;;6.03;2.50;;;;;;;;;;4915227;29;20248;-64
2022/11/12 03:01:19;;;;;;;2.67;2.23;;;;;;;;;;4914706;29;20216;-64
2022/11/12 03:03:46;;;;;;;2.13;1.87;;;;;;;;;;4929224;29;20223;-63
2022/11/12 03:06:13;;;;;;;2.10;1.90;;;;;;;;;;4928880;29;20572;-64
2022/11/12 03:08:41;;;;;;;8.00;2.43;;;;;;;;;;4931257;29;20217;-64
2022/11/12 03:11:11;;;;;;;7.37;2.17;;;;;;;;;;4921618;29;20216;-64
2022/11/12 03:13:38;;;;;;;2.50;2.30;;;;;;;;;;4914031;29;20205;-64
2022/11/12 03:16:05;;;;;;;12.83;2.40;;;;;;;;;;4927384;29;20254;-64
2022/11/12 03:18:32;;;;;;;3.03;2.37;;;;;;;;;;4919740;29;20209;-64
2022/11/12 03:21:00;;;;;;;1.87;1.77;;;;;;;;;;4929639;29;20207;-64
2022/11/12 03:23:27;;;;;;;3.50;2.20;;;;;;;;;;4917833;29;20213;-64
2022/11/12 03:25:54;;;;;;;2.33;2.17;;;;;;;;;;4913957;29;20588;-64
2022/11/12 03:28:23;;;;;;;2.90;2.13;;;;;;;;;;4915817;29;20224;-64
2022/11/12 03:30:50;;;;;;;3.57;2.57;;;;;;;;;;4913083;29;20774;-64
2022/11/12 03:33:17;;;;;;;2.50;2.23;;;;;;;;;;4930968;29;20216;-64
2022/11/12 03:35:44;;;;;;;17.27;2.57;;;;;;;;;;4926053;29;20600;-63
2022/11/12 03:38:11;;;;;;;3.40;2.13;;;;;;;;;;4919226;29;20216;-63
2022/11/12 03:40:38;;;;;;;2.37;2.17;;;;;;;;;;4932515;29;20218;-63
2022/11/12 03:43:05;;;;;;;2.60;2.40;;;;;;;;;;4920100;29;20344;-64
2022/11/12 03:45:34;;;;;;;2.33;2.23;;;;;;;;;;4913406;29;20219;-63
2022/11/12 03:48:01;;;;;;;6.53;2.57;;;;;;;;;;4923622;29;20216;-64
2022/11/12 03:50:29;;;;;;;2.80;2.10;;;;;;;;;;4929843;29;20207;-64
2022/11/12 03:52:57;;;;;;;6.50;1.70;;;;;;;;;;4918084;29;20223;-64
2022/11/12 03:55:25;;;;;;;2.07;1.87;;;;;;;;;;4916813;29;20640;-63
2022/11/12 03:57:52;;;;;;;4.63;2.50;;;;;;;;;;4913386;29;20252;-64
2022/11/12 04:00:20;;;;;;;3.10;1.87;;;;;;;;;;4929057;29;20259;-64
2022/11/12 04:02:48;;;;;;;6.77;1.63;;;;;;;;;;4922945;29;20219;-63
2022/11/12 04:10:45;;;;;;;1.53;1.43;;;;;;;;;;4913951;29;20264;-64
2022/11/12 04:13:28;;;;;;;4.13;1.67;;;;;;;;;;4911514;29;20216;-64
2022/11/12 04:26:21;;;;;;;2.73;1.83;;;;;;;;;;4912893;29;20361;-64
2022/11/12 04:27:00;;;;;;;3.37;2.33;;;;;;;;;;4912795;29;20776;-64
2022/11/12 04:32:11;;;;;;;6.47;1.63;;;;;;;;;;4926201;29;20212;-64
2022/11/12 04:34:39;;;;;;;0.90;0.83;;;;;;;;;;4921505;29;20212;-63
2022/11/12 04:37:07;;;;;;;1.77;1.67;;;;;;;;;;4926766;29;20707;-64
2022/11/12 04:39:34;;;;;;;1.20;1.20;;;;;;;;;;4912669;29;20223;-64
2022/11/12 04:45:02;;;;;;;1.97;1.73;;;;;;;;;;4897502;29;21173;-63
2022/11/12 04:47:30;;;;;;;1.90;1.80;;;;;;;;;;4912770;29;20212;-63
2022/11/12 04:49:58;;;;;;;1.70;1.60;;;;;;;;;;4916522;29;20221;-63
2022/11/12 04:52:26;;;;;;;1.43;1.40;;;;;;;;;;4925134;29;20204;-63
2022/11/12 04:54:53;;;;;;;4.30;1.67;;;;;;;;;;4923233;29;20512;-63
2022/11/12 04:57:20;;;;;;;4.80;2.03;;;;;;;;;;4925358;29;20238;-63
2022/11/12 04:59:47;;;;;;;1.33;1.33;;;;;;;;;;4931203;29;20248;-63
2022/11/12 05:02:15;;;;;;;5.10;2.20;;;;;;;;;;4929469;29;20219;-64
2022/11/12 05:04:42;;;;;;;2.53;1.77;;;;;;;;;;4927851;29;20215;-64
2022/11/12 05:07:10;;;;;;;1.93;1.73;;;;;;;;;;4912316;29;20224;-64
2022/11/12 05:09:38;;;;;;;2.00;1.90;;;;;;;;;;4913461;29;20570;-64
2022/11/12 05:12:05;;;;;;;1.93;1.83;;;;;;;;;;4912500;29;20216;-64
2022/11/12 05:14:32;;;;;;;1.77;1.70;;;;;;;;;;4913053;29;20224;-64
2022/11/12 05:16:59;;;;;;;1.53;1.33;;;;;;;;;;4929623;29;20243;-64
2022/11/12 05:19:26;;;;;;;2.07;1.80;;;;;;;;;;4915178;29;20209;-64
2022/11/12 05:22:05;;;;;;;1.77;1.60;;;;;;;;;;4912083;29;20216;-64
2022/11/12 05:24:34;;;;;;;0.90;0.80;;;;;;;;;;4913815;29;20215;-64
2022/11/12 05:27:02;;;;;;;1.23;1.23;;;;;;;;;;4915834;29;20583;-63
2022/11/12 05:29:29;;;;;;;6.60;1.83;;;;;;;;;;4915925;29;20213;-64
2022/11/12 05:31:56;;;;;;;1.67;1.50;;;;;;;;;;4916988;29;20719;-63
2022/11/12 05:34:23;;;;;;;2.20;2.00;;;;;;;;;;4914291;29;20212;-63
2022/11/12 05:36:50;;;;;;;2.20;2.10;;;;;;;;;;4923473;29;20238;-63
2022/11/12 05:39:18;;;;;;;3.40;1.07;;;;;;;;;;4929916;29;20218;-64
2022/11/12 05:41:46;;;;;;;2.60;2.20;;;;;;;;;;4928115;29;20230;-63
2022/11/12 05:44:13;;;;;;;3.33;1.87;;;;;;;;;;4934277;29;20749;-63
2022/11/12 05:46:40;;;;;;;2.17;1.90;;;;;;;;;;4918028;29;20212;-63
2022/11/12 05:49:07;;;;;;;5.07;1.80;;;;;;;;;;4917369;29;20211;-63
2022/11/12 05:51:34;;;;;;;1.93;1.83;;;;;;;;;;4915719;29;20216;-64
2022/11/12 05:54:02;;;;;;;1.70;1.50;;;;;;;;;;4915790;29;20236;-63
2022/11/12 05:56:29;;;;;;;1.80;1.70;;;;;;;;;;4915138;29;20205;-63
2022/11/12 05:58:57;;;;;;;1.10;1.10;;;;;;;;;;4931597;29;20250;-63
2022/11/12 06:01:25;;;;;;;2.23;1.67;;;;;;;;;;4930018;29;20590;-63
2022/11/12 06:03:52;;;;;;;1.37;1.27;;;;;;;;;;4915387;29;20227;-63
2022/11/12 06:06:19;;;;;;;2.47;1.97;;;;;;;;;;4930073;29;20262;-63
2022/11/12 06:08:46;;;;;;;3.87;1.90;;;;;;;;;;4920620;29;20200;-63
2022/11/12 06:11:13;;;;;;;1.57;1.40;;;;;;;;;;4927535;29;20224;-64
2022/11/12 06:13:40;;;;;;;1.53;1.40;;;;;;;;;;4915761;29;20212;-64
2022/11/12 06:16:09;;;;;;;4.43;1.40;;;;;;;;;;4914367;29;20217;-64
2022/11/12 06:18:36;;;;;;;1.70;1.60;;;;;;;;;;4933254;29;20254;-64
2022/11/12 06:21:22;;;;;;;1.67;1.57;;;;;;;;;;4932883;29;20219;-64
2022/11/12 06:23:51;;;;;;;3.87;1.80;;;;;;;;;;4915391;29;20685;-64
2022/11/12 06:26:19;;;;;;;2.17;1.63;;;;;;;;;;4914985;29;20208;-64
2022/11/12 06:28:46;;;;;;;1.37;1.27;;;;;;;;;;4921051;29;20306;-64
2022/11/12 06:31:15;;;;;;;1.77;1.67;;;;;;;;;;4916759;29;20219;-64
2022/11/12 06:33:42;;;;;;;2.90;1.77;;;;;;;;;;4914482;29;20209;-64
2022/11/12 06:36:11;;;;;;;3.57;2.27;;;;;;;;;;4921671;29;20816;-63
2022/11/12 06:38:39;;;;;;;1.50;1.40;;;;;;;;;;4919084;29;20233;-66
2022/11/12 06:41:06;;;;;;;1.80;1.33;;;;;;;;;;4917573;29;20223;-64
2022/11/12 06:43:34;;;;;;;1.53;1.43;;;;;;;;;;4932794;29;20211;-65
2022/11/12 06:46:01;;;;;;;2.30;2.20;;;;;;;;;;4919997;29;20212;-65
2022/11/12 06:48:30;;;;;;;2.13;2.00;;;;;;;;;;4924455;29;20211;-65
2022/11/12 06:50:58;;;;;;;2.20;2.10;;;;;;;;;;4923674;29;20208;-65
2022/11/12 06:53:30;;;;;;;6.37;2.93;;;;;;;;;;4898717;29;20213;-65
2022/11/12 06:56:02;;;;;;;3.33;2.63;;;;;;;;;;4899195;29;20242;-65
2022/11/12 06:58:29;;;;;;;2.33;1.97;;;;;;;;;;4913348;29;20258;-65
2022/11/12 07:00:56;;;;;;;8.83;2.23;;;;;;;;;;4914035;29;20427;-65
2022/11/12 07:03:23;;;;;;;2.67;2.27;;;;;;;;;;4913757;29;20204;-65
2022/11/12 07:05:51;;;;;;;4.60;2.63;;;;;;;;;;4914313;29;20216;-65
2022/11/12 07:08:18;;;;;;;4.03;2.63;;;;;;;;;;4913307;29;20234;-66
2022/11/12 07:10:45;;;;;;;2.57;2.40;;;;;;;;;;4914503;29;20212;-65
2022/11/12 07:13:12;;;;;;;2.93;2.73;;;;;;;;;;4916248;29;20212;-63
2022/11/12 07:15:40;;;;;;;2.57;2.40;;;;;;;;;;4913296;29;20216;-64
2022/11/12 07:18:07;;;;;;;2.53;2.10;;;;;;;;;;4913667;29;20247;-64
2022/11/12 07:20:34;;;;;;;5.70;3.40;;;;;;;;;;4913367;29;20241;-63
2022/11/12 07:23:02;;;;;;;2.70;2.50;;;;;;;;;;4913796;29;20211;-63
2022/11/12 07:25:29;;;;;;;4.13;3.30;;;;;;;;;;4914031;29;20227;-64
2022/11/12 07:27:57;;;;;;;4.30;2.47;;;;;;;;;;4913325;29;20337;-64
2022/11/12 07:30:24;;;;;;;3.23;2.80;;;;;;;;;;4913823;29;20211;-64
2022/11/12 07:32:51;;;;;;;7.87;2.73;;;;;;;;;;4914250;29;20215;-64
2022/11/12 07:35:18;;;;;;;4.40;3.33;;;;;;;;;;4912999;29;20222;-64
2022/11/12 07:37:45;;;;;;;4.73;3.13;;;;;;;;;;4912005;29;20363;-64
2022/11/12 07:40:14;;;;;;;4.27;3.23;;;;;;;;;;4913461;29;20227;-64
2022/11/12 07:42:41;;;;;;;4.90;2.97;;;;;;;;;;4913244;29;20220;-64
2022/11/12 07:45:08;;;;;;;3.87;3.07;;;;;;;;;;4913860;29;20216;-64
2022/11/12 07:47:35;;;;;;;5.47;3.40;;;;;;;;;;4912912;29;20693;-64
2022/11/12 07:50:02;;;;;;;3.87;3.03;;;;;;;;;;4912827;29;20266;-64
2022/11/12 07:52:29;;;;;;;3.93;3.50;;;;;;;;;;4912024;29;20219;-64
2022/11/12 07:54:56;;;;;;;5.27;4.10;;;;;;;;;;4913027;29;20707;-64
2022/11/12 07:57:25;;;;;;;5.80;3.97;;;;;;;;;;4912700;29;20228;-66
2022/11/12 07:59:52;;;;;;;22.60;12.00;;;;;;;;;;4912194;29;20244;-64
2022/11/12 08:02:19;;;;;;;33.37;15.70;;;;;;;;;;4922982;29;20205;-64
2022/11/12 08:04:46;;;;;;;18.43;9.43;;;;;;;;;;4920117;29;20211;-65
2022/11/12 08:07:13;;;;;;;11.07;5.17;;;;;;;;;;4915735;29;20215;-65
2022/11/12 08:09:40;;;;;;;5.73;3.47;;;;;;;;;;4908994;29;20205;-65
2022/11/12 08:12:07;;;;;;;7.37;4.33;;;;;;;;;;4896858;29;20293;-65
2022/11/12 08:14:36;;;;;;;8.50;5.60;;;;;;;;;;4912838;29;20207;-65
2022/11/12 08:17:03;;;;;;;9.60;4.60;;;;;;;;;;4911853;29;20219;-65
2022/11/12 08:19:30;;;;;;;5.37;3.57;;;;;;;;;;4905023;29;20219;-65
2022/11/12 08:21:57;;;;;;;8.23;4.20;;;;;;;;;;4911988;29;20797;-65
2022/11/12 08:24:24;;;;;;;9.87;4.87;;;;;;;;;;4912378;29;20942;-65
2022/11/12 08:26:51;;;;;;;5.97;3.73;;;;;;;;;;4912236;29;20204;-65
2022/11/12 08:29:19;;;;;;;8.30;4.90;;;;;;;;;;4912008;29;20217;-65
2022/11/12 08:31:47;;;;;;;8.97;4.87;;;;;;;;;;4910879;29;20682;-65
2022/11/12 08:34:15;;;;;;;8.40;5.23;;;;;;;;;;4901363;29;20221;-65
2022/11/12 08:36:42;;;;;;;8.10;4.40;;;;;;;;;;4894354;29;20220;-65
2022/11/12 08:39:09;;;;;;;7.50;4.37;;;;;;;;;;4907332;29;20237;-65
2022/11/12 08:41:36;;;;;;;10.50;4.80;;;;;;;;;;4912618;29;20221;-65
2022/11/12 08:44:04;;;;;;;8.23;4.60;;;;;;;;;;4915202;29;20241;-65
2022/11/12 08:46:31;;;;;;;8.77;5.43;;;;;;;;;;4922448;29;20871;-65
2022/11/12 08:48:59;;;;;;;9.70;4.97;;;;;;;;;;4911956;29;20439;-65
2022/11/12 08:51:26;;;;;;;8.03;4.07;;;;;;;;;;4911862;29;20227;-65
2022/11/12 08:53:54;;;;;;;9.00;4.60;;;;;;;;;;4912435;29;20208;-68
2022/11/12 08:56:21;;;;;;;7.07;4.67;;;;;;;;;;4927546;29;20566;-72
2022/11/12 08:58:48;;;;;;;8.83;4.97;;;;;;;;;;4913944;29;20834;-70
2022/11/12 09:01:15;;;;;;;7.60;5.30;;;;;;;;;;4929965;29;20212;-70
2022/11/12 09:03:42;;;;;;;5.40;4.63;;;;;;;;;;4919592;29;20219;-70
2022/11/12 09:06:10;;;;;;;6.83;5.10;;;;;;;;;;4920238;29;20300;-70
2022/11/12 09:08:38;;;;;;;6.37;4.00;;;;;;;;;;4924636;29;20199;-66
2022/11/12 09:11:06;;;;;;;7.13;4.50;;;;;;;;;;4921588;29;20633;-63
2022/11/12 09:13:33;;;;;;;7.00;4.43;;;;;;;;;;4925806;29;20223;-65
2022/11/12 09:16:01;;;;;;;5.93;4.23;;;;;;;;;;4919072;29;20220;-65
2022/11/12 09:18:28;;;;;;;8.50;4.17;;;;;;;;;;4918364;29;20323;-65
2022/11/12 09:21:00;;;;;;;7.03;4.03;;;;;;;;;;4913933;29;20227;-65
2022/11/12 09:23:28;;;;;;;12.30;6.70;;;;;;;;;;4910345;29;20216;-65
2022/11/12 09:25:56;;;;;;;6.83;4.63;;;;;;;;;;4920580;29;20240;-66
2022/11/12 09:28:23;;;;;;;16.87;7.53;;;;;;;;;;4925955;29;20205;-65
2022/11/12 09:30:50;;;;;;;4.97;3.90;;;;;;;;;;4916806;29;20208;-66
2022/11/12 09:33:18;;;;;;;6.87;3.60;;;;;;;;;;4921358;29;20216;-64
2022/11/12 09:35:46;;;;;;;4.33;3.67;;;;;;;;;;4920091;29;20208;-64
2022/11/12 09:38:14;;;;;;;4.63;3.37;;;;;;;;;;4917830;29;20258;-64
2022/11/12 09:40:46;;;;;;;6.43;3.50;;;;;;;;;;4915920;29;20217;-65
2022/11/12 09:43:23;;;;;;;4.43;3.90;;;;;;;;;;4921153;29;20220;-65
2022/11/12 09:45:51;;;;;;;5.20;4.10;;;;;;;;;;4919177;29;20215;-65
2022/11/12 09:48:20;;;;;;;4.43;3.13;;;;;;;;;;4922123;29;20211;-65
2022/11/12 09:50:52;;;;;;;5.23;3.40;;;;;;;;;;4911198;29;20680;-65
2022/11/12 09:53:22;;;;;;;6.40;4.53;;;;;;;;;;4918763;29;20227;-65
2022/11/12 09:55:59;;;;;;;8.07;4.90;;;;;;;;;;4916033;29;20287;-64
2022/11/12 09:58:27;;;;;;;6.00;4.30;;;;;;;;;;4906489;29;20272;-64
2022/11/12 10:00:55;;;;;;;4.27;3.60;;;;;;;;;;4912041;29;20213;-64
2022/11/12 10:03:31;;;;;;;6.70;4.00;;;;;;;;;;4915252;29;20599;-65
2022/11/12 10:05:59;;;;;;;6.13;3.67;;;;;;;;;;4914539;29;20217;-65
2022/11/12 10:08:34;;;;;;;7.47;4.23;;;;;;;;;;4912126;29;20208;-64
2022/11/12 10:11:11;;;;;;;7.50;4.37;;;;;;;;;;4916155;29;20215;-64
2022/11/12 10:13:44;;;;;;;5.90;4.80;;;;;;;;;;4901487;29;20209;-64
2022/11/12 10:19:30;;;;;;;5.43;4.00;;;;;;;;;;4906713;29;20271;-64
2022/11/12 10:22:01;;;;;;;7.73;4.30;;;;;;;;;;4927114;29;20224;-64
2022/11/12 10:24:30;;;;;;;5.43;3.90;;;;;;;;;;4923017;29;20207;-64
2022/11/12 10:26:59;;;;;;;7.10;5.27;;;;;;;;;;4912334;29;20221;-64
2022/11/12 10:29:29;;;;;;;7.03;5.10;;;;;;;;;;4915342;29;20239;-65
2022/11/12 10:31:56;;;;;;;6.83;3.93;;;;;;;;;;4920177;29;20234;-65
2022/11/12 10:34:24;;;;;;;7.17;4.53;;;;;;;;;;4918016;29;20208;-65
2022/11/12 10:36:54;;;;;;;4.70;4.10;;;;;;;;;;4912363;29;20216;-64
2022/11/12 10:39:31;;;;;;;7.77;4.80;;;;;;;;;;4905050;29;20241;-64
2022/11/12 10:42:07;;;;;;;6.53;4.53;;;;;;;;;;4907164;29;20205;-65
2022/11/12 10:44:34;;;;;;;7.23;4.57;;;;;;;;;;4920373;29;20223;-65
2022/11/12 10:47:18;;;;;;;6.83;4.60;;;;;;;;;;4926228;29;20212;-65
2022/11/12 10:49:59;;;;;;;6.07;4.53;;;;;;;;;;4915268;29;20216;-64
2022/11/12 10:52:26;;;;;;;6.53;4.30;;;;;;;;;;4932005;29;20233;-65
2022/11/12 10:55:03;;;;;;;6.07;4.47;;;;;;;;;;4916726;29;20231;-65
2022/11/12 10:57:32;;;;;;;8.70;4.77;;;;;;;;;;4930361;29;20218;-63
2022/11/12 11:00:09;;;;;;;8.30;4.83;;;;;;;;;;4918406;29;20771;-64
2022/11/12 11:02:37;;;;;;;5.90;4.57;;;;;;;;;;4908384;29;20276;-62
2022/11/12 11:05:18;;;;;;;7.90;5.73;;;;;;;;;;4916740;29;20223;-65
2022/11/12 11:07:50;;;;;;;7.00;3.60;;;;;;;;;;4913136;29;20231;-64
2022/11/12 11:10:24;;;;;;;5.53;4.30;;;;;;;;;;4913271;29;20216;-64
2022/11/12 11:13:08;;;;;;;7.07;4.63;;;;;;;;;;4912847;29;20208;-64
2022/11/12 11:15:36;;;;;;;5.67;4.03;;;;;;;;;;4920402;29;20584;-65
2022/11/12 11:18:03;;;;;;;6.80;4.83;;;;;;;;;;4913544;29;20205;-67
2022/11/12 11:20:34;;;;;;;8.17;4.50;;;;;;;;;;4913464;29;20216;-64
2022/11/12 11:23:04;;;;;;;7.30;4.17;;;;;;;;;;4914183;29;20216;-65
2022/11/12 11:25:33;;;;;;;6.63;5.17;;;;;;;;;;4921837;29;20212;-65
2022/11/12 11:28:05;;;;;;;8.10;5.17;;;;;;;;;;4916121;29;20216;-65
2022/11/12 11:30:32;;;;;;;6.13;5.03;;;;;;;;;;4916264;29;20260;-65
2022/11/12 11:33:18;;;;;;;5.30;4.10;;;;;;;;;;4932715;29;20208;-66
2022/11/12 11:35:48;;;;;;;11.37;6.37;;;;;;;;;;4919161;29;20222;-66
2022/11/12 11:38:21;;;;;;;9.47;6.67;;;;;;;;;;4928396;29;20227;-66
2022/11/12 11:40:52;;;;;;;9.67;6.27;;;;;;;;;;4914442;29;20268;-65
2022/11/12 11:43:33;;;;;;;7.83;5.90;;;;;;;;;;4913797;29;20221;-65
2022/11/12 11:46:07;;;;;;;8.70;5.10;;;;;;;;;;4910667;29;20217;-65
2022/11/12 11:48:48;;;;;;;8.63;5.77;;;;;;;;;;4914947;29;20533;-66
2022/11/12 11:51:23;;;;;;;11.97;5.70;;;;;;;;;;4917117;29;20219;-65
2022/11/12 11:53:56;;;;;;;15.90;6.57;;;;;;;;;;4921584;29;20242;-66
2022/11/12 11:56:25;;;;;;;8.77;6.20;;;;;;;;;;4928798;29;20222;-66
2022/11/12 11:59:02;;;;;;;9.27;5.70;;;;;;;;;;4915968;29;20235;-65
2022/11/12 12:01:35;;;;;;;10.13;6.80;;;;;;;;;;4924764;29;20226;-66
2022/11/12 12:04:08;;;;;;;10.03;5.93;;;;;;;;;;4894574;29;20300;-65
2022/11/12 12:06:38;;;;;;;10.70;6.30;;;;;;;;;;4907801;29;20208;-63
2022/11/12 12:09:11;;;;;;;7.73;5.47;;;;;;;;;;4928464;29;20218;-65
2022/11/12 12:11:42;;;;;;;8.33;5.50;;;;;;;;;;4913684;29;20271;-65
2022/11/12 12:14:19;;;;;;;9.87;4.80;;;;;;;;;;4912415;29;20218;-65
2022/11/12 12:16:51;;;;;;;10.23;4.93;;;;;;;;;;4911151;29;20303;-65
2022/11/12 12:19:26;;;;;;;6.00;5.03;;;;;;;;;;4919504;29;20228;-65
2022/11/12 12:21:53;;;;;;;7.53;5.10;;;;;;;;;;4914183;29;20540;-65
2022/11/12 12:24:22;;;;;;;7.33;4.83;;;;;;;;;;4909197;29;20223;-64
2022/11/12 12:26:52;;;;;;;9.20;6.77;;;;;;;;;;4931547;29;20215;-66
2022/11/12 12:29:24;;;;;;;7.37;5.40;;;;;;;;;;4922812;29;20232;-65
2022/11/12 12:31:53;;;;;;;12.03;6.17;;;;;;;;;;4913017;29;20212;-64
2022/11/12 12:34:23;;;;;;;8.53;5.30;;;;;;;;;;4912220;29;20610;-65
2022/11/12 12:36:52;;;;;;;6.87;5.17;;;;;;;;;;4913025;29;20236;-66
2022/11/12 12:39:19;;;;;;;7.70;6.03;;;;;;;;;;4923359;29;20231;-64
2022/11/12 12:41:50;;;;;;;8.00;5.40;;;;;;;;;;4910470;29;20220;-64
2022/11/12 12:44:17;;;;;;;12.03;6.00;;;;;;;;;;4912308;29;20211;-65
2022/11/12 12:46:48;;;;;;;10.33;6.47;;;;;;;;;;4912215;29;20208;-65
2022/11/12 12:49:17;;;;;;;10.27;6.13;;;;;;;;;;4912136;29;20204;-64
2022/11/12 12:51:45;;;;;;;9.40;5.77;;;;;;;;;;4918273;29;20207;-65
2022/11/12 12:54:31;;;;;;;10.20;6.93;;;;;;;;;;4926700;29;20228;-64
2022/11/12 12:56:58;;;;;;;9.60;6.00;;;;;;;;;;4914780;29;20208;-65
2022/11/12 12:59:25;;;;;;;8.33;5.63;;;;;;;;;;4912251;29;20255;-64
2022/11/12 13:01:57;;;;;;;9.87;6.33;;;;;;;;;;4912090;29;20230;-64
2022/11/12 13:04:43;;;;;;;11.07;6.47;;;;;;;;;;4922763;29;20239;-65
2022/11/12 13:07:10;;;;;;;17.23;8.10;;;;;;;;;;4923842;29;20207;-65
2022/11/12 13:09:37;;;;;;;12.80;7.03;;;;;;;;;;4913998;29;20216;-65
2022/11/12 13:12:22;;;;;;;11.30;7.20;;;;;;;;;;4915239;29;20959;-64
2022/11/12 13:15:08;;;;;;;11.43;6.70;;;;;;;;;;4928511;29;20212;-65
2022/11/12 13:17:46;;;;;;;12.30;7.43;;;;;;;;;;4928497;29;20231;-65
2022/11/12 13:20:38;;;;;;;13.97;7.00;;;;;;;;;;4912328;29;20239;-63
2022/11/12 13:23:23;;;;;;;9.40;6.83;;;;;;;;;;4914178;29;20228;-66
2022/11/12 13:25:51;;;;;;;8.57;5.63;;;;;;;;;;4912051;29;20211;-65
2022/11/12 13:28:18;;;;;;;9.23;5.70;;;;;;;;;;4912234;29;20216;-65
2022/11/12 13:30:56;;;;;;;9.73;5.80;;;;;;;;;;4916505;29;20201;-65
2022/11/12 13:33:27;;;;;;;8.87;5.73;;;;;;;;;;4914940;29;20223;-65
2022/11/12 13:36:16;;;;;;;10.10;5.67;;;;;;;;;;4930973;29;20238;-66
2022/11/12 13:38:43;;;;;;;9.33;6.00;;;;;;;;;;4921207;29;20228;-65
2022/11/12 13:41:15;;;;;;;9.10;5.97;;;;;;;;;;4911995;29;20221;-65
2022/11/12 13:43:43;;;;;;;8.53;5.97;;;;;;;;;;4920908;29;20686;-66
2022/11/12 13:46:26;;;;;;;10.10;6.40;;;;;;;;;;4933251;29;20216;-63
2022/11/12 13:48:58;;;;;;;9.77;6.27;;;;;;;;;;4919051;29;20212;-65
2022/11/12 13:51:29;;;;;;;8.00;5.33;;;;;;;;;;4931261;29;20223;-64
2022/11/12 13:53:56;;;;;;;8.37;5.97;;;;;;;;;;4923069;29;20216;-64
2022/11/12 13:56:28;;;;;;;9.40;6.30;;;;;;;;;;4928542;29;20204;-64
2022/11/12 13:58:55;;;;;;;10.37;6.00;;;;;;;;;;4915419;29;20319;-63
2022/11/12 14:01:23;;;;;;;17.13;10.03;;;;;;;;;;4918097;29;20766;-63
2022/11/12 14:03:51;;;;;;;17.17;9.50;;;;;;;;;;4934511;29;20216;-64
2022/11/12 14:06:22;;;;;;;11.50;5.90;;;;;;;;;;4916345;29;20297;-64
2022/11/12 14:08:55;;;;;;;13.47;7.23;;;;;;;;;;4915158;29;20227;-64
2022/11/12 14:11:37;;;;;;;10.47;6.13;;;;;;;;;;4931536;29;20674;-64
2022/11/12 14:14:09;;;;;;;16.33;8.03;;;;;;;;;;4934208;29;20219;-63
2022/11/12 14:16:42;;;;;;;7.80;5.87;;;;;;;;;;4919565;29;20219;-64
2022/11/12 14:19:19;;;;;;;13.17;6.63;;;;;;;;;;4916816;29;20232;-64
2022/11/12 14:21:59;;;;;;;18.30;6.77;;;;;;;;;;4908561;29;20216;-64
2022/11/12 14:24:26;;;;;;;15.60;8.50;;;;;;;;;;4932697;29;20211;-64
2022/11/12 14:26:54;;;;;;;17.47;9.20;;;;;;;;;;4914725;29;20205;-64
2022/11/12 14:29:21;;;;;;;11.63;6.13;;;;;;;;;;4913374;29;20219;-64
2022/11/12 14:31:48;;;;;;;15.40;6.47;;;;;;;;;;4904063;29;20205;-64
2022/11/12 14:34:22;;;;;;;10.47;5.77;;;;;;;;;;4922549;29;20208;-64
2022/11/12 14:36:51;;;;;;;9.73;6.77;;;;;;;;;;4916867;29;20228;-64
2022/11/12 14:39:19;;;;;;;9.90;6.07;;;;;;;;;;4917798;29;20656;-64
2022/11/12 14:41:48;;;;;;;10.17;6.10;;;;;;;;;;4915248;29;20235;-64
2022/11/12 14:44:18;;;;;;;8.87;5.47;;;;;;;;;;4926349;29;20207;-63
2022/11/12 14:46:46;;;;;;;10.37;6.00;;;;;;;;;;4928699;29;20212;-70
2022/11/12 14:49:17;;;;;;;11.40;6.40;;;;;;;;;;4920452;29;20212;-66
2022/11/12 14:51:47;;;;;;;8.60;5.43;;;;;;;;;;4921869;29;20207;-63
2022/11/12 14:54:17;;;;;;;16.17;8.90;;;;;;;;;;4914821;29;20240;-64
2022/11/12 14:56:47;;;;;;;12.50;7.10;;;;;;;;;;4894619;29;20225;-64
2022/11/12 14:59:15;;;;;;;12.10;6.90;;;;;;;;;;4914986;29;20323;-64
2022/11/12 15:02:02;;;;;;;10.33;5.97;;;;;;;;;;4917840;29;20224;-64
2022/11/12 15:04:36;;;;;;;13.23;7.17;;;;;;;;;;4915146;29;20335;-64
2022/11/12 15:07:03;;;;;;;12.33;7.37;;;;;;;;;;4913229;29;20226;-64
2022/11/12 15:09:35;;;;;;;13.27;7.60;;;;;;;;;;4932187;29;20207;-64
2022/11/12 15:12:05;;;;;;;15.13;7.40;;;;;;;;;;4932359;29;20222;-64
2022/11/12 15:14:32;;;;;;;9.70;6.60;;;;;;;;;;4931361;29;20704;-65
2022/11/12 15:16:59;;;;;;;9.60;5.60;;;;;;;;;;4932733;29;20242;-64